Terminal Aerodrome Forecast
Issued by NWS Louisville, KY

Home | Current Version | Previous Version | Text Only | Print | Product List | Glossary On
Versions: 1 2 3 4 5 6 7 8 9 10 11 12 13 14 15 16 17 18 19
000
FTUS43 KLMK 021455 AAA
TAFLEX
TAF AMD
KLEX 021455Z 0215/0312 23003KT P6SM SKC
     FM021700 26007KT P6SM OVC030
     FM030000 29004KT P6SM BKN035=

USA.gov is the U.S. government's official web portal to all federal, state and local government web resources and services.